createdAt,value
2022-12-31T00:00:36.636Z,8.34
2022-12-31T00:01:36.593Z,8.32
2022-12-31T00:02:36.743Z,8.29
2022-12-31T00:03:36.571Z,8.25
2022-12-31T00:04:36.495Z,8.20
2022-12-31T00:05:36.535Z,8.16
2022-12-31T00:06:36.479Z,8.12
2022-12-31T00:08:10.400Z,9.19
2022-12-31T00:09:11.296Z,8.74
2022-12-31T00:10:11.269Z,8.44
2022-12-31T00:11:11.221Z,8.28
2022-12-31T00:12:11.239Z,8.19
2022-12-31T00:13:11.201Z,8.15
2022-12-31T00:14:11.199Z,8.14
2022-12-31T00:15:11.189Z,8.14
2022-12-31T00:16:12.495Z,8.14
2022-12-31T00:17:11.163Z,8.14
2022-12-31T00:18:11.158Z,8.16
2022-12-31T00:19:11.139Z,8.17
2022-12-31T00:20:11.123Z,8.20
2022-12-31T00:21:11.121Z,8.22
2022-12-31T00:22:11.101Z,8.22
2022-12-31T00:23:11.348Z,8.22
2022-12-31T00:24:11.117Z,8.21
2022-12-31T00:25:11.081Z,8.19
2022-12-31T00:26:11.061Z,8.17
2022-12-31T00:27:11.028Z,8.16
2022-12-31T00:28:11.027Z,8.16
2022-12-31T00:29:11.029Z,8.19
2022-12-31T00:30:10.995Z,8.22
2022-12-31T00:31:11.012Z,8.24
2022-12-31T00:32:10.950Z,8.27
2022-12-31T00:33:10.943Z,8.30
2022-12-31T00:34:10.916Z,8.30
2022-12-31T00:35:10.927Z,8.27
2022-12-31T00:36:10.940Z,8.24
2022-12-31T00:37:10.907Z,8.21
2022-12-31T00:38:10.883Z,8.21
2022-12-31T00:39:10.880Z,8.25
2022-12-31T00:40:10.846Z,8.27
2022-12-31T00:41:10.842Z,8.27
2022-12-31T00:42:10.840Z,8.28
2022-12-31T00:43:10.805Z,8.29
2022-12-31T00:44:10.779Z,8.29
2022-12-31T00:45:10.775Z,8.28
2022-12-31T00:46:10.802Z,8.29
2022-12-31T00:47:10.758Z,8.27
2022-12-31T00:48:10.739Z,8.25
2022-12-31T00:49:10.718Z,8.22
2022-12-31T00:50:10.736Z,8.20
2022-12-31T00:51:10.699Z,8.17
2022-12-31T00:52:10.679Z,8.13
2022-12-31T00:53:10.689Z,8.08
2022-12-31T00:54:10.670Z,8.04
2022-12-31T00:55:10.649Z,8.00
2022-12-31T00:56:10.635Z,7.97
2022-12-31T00:57:10.629Z,7.94
2022-12-31T00:58:10.616Z,7.92
2022-12-31T00:59:10.595Z,7.90
2022-12-31T01:00:10.571Z,7.89
2022-12-31T01:01:10.692Z,7.90
2022-12-31T01:02:10.932Z,7.94
2022-12-31T01:03:10.615Z,7.98
2022-12-31T01:04:10.552Z,8.01
2022-12-31T01:05:10.511Z,8.01
2022-12-31T01:06:10.512Z,7.99
2022-12-31T01:07:10.487Z,7.96
2022-12-31T01:08:10.470Z,7.94
2022-12-31T01:09:10.468Z,7.92
2022-12-31T01:10:10.460Z,7.92
2022-12-31T01:11:10.412Z,7.91
2022-12-31T01:12:10.422Z,7.90
2022-12-31T01:13:10.393Z,7.88
2022-12-31T01:14:10.416Z,7.86
2022-12-31T01:15:10.354Z,7.85
2022-12-31T01:16:10.403Z,7.83
2022-12-31T01:17:10.348Z,7.82
2022-12-31T01:18:10.345Z,7.81
2022-12-31T01:19:10.320Z,7.82
2022-12-31T01:20:10.311Z,7.85
2022-12-31T01:21:10.295Z,7.89
2022-12-31T01:22:10.284Z,7.93
2022-12-31T01:23:10.260Z,7.95
2022-12-31T01:24:10.268Z,7.96
2022-12-31T01:25:10.257Z,7.96
2022-12-31T01:26:10.218Z,7.95
2022-12-31T01:27:10.200Z,7.96
2022-12-31T01:28:10.195Z,7.98
2022-12-31T01:29:10.202Z,8.00
2022-12-31T01:30:10.183Z,8.01
2022-12-31T01:31:10.210Z,8.01
2022-12-31T01:32:10.180Z,8.01
2022-12-31T01:33:10.139Z,8.01
2022-12-31T01:34:10.128Z,8.02
2022-12-31T01:35:10.113Z,8.02
2022-12-31T01:36:10.107Z,8.02
2022-12-31T01:37:10.068Z,8.04
2022-12-31T01:38:10.091Z,8.08
2022-12-31T01:39:10.042Z,8.11
2022-12-31T01:40:10.043Z,8.12
2022-12-31T01:41:10.042Z,8.13
2022-12-31T01:42:10.024Z,8.14
2022-12-31T01:43:10.020Z,8.15
2022-12-31T01:44:09.989Z,8.16
2022-12-31T01:45:09.956Z,8.16
2022-12-31T01:46:10.009Z,8.15
2022-12-31T01:47:09.960Z,8.15
2022-12-31T01:48:09.932Z,8.17
2022-12-31T01:49:09.905Z,8.19
2022-12-31T01:50:09.928Z,8.20
2022-12-31T01:51:09.876Z,8.20
2022-12-31T01:52:09.876Z,8.21
2022-12-31T01:53:09.873Z,8.25
2022-12-31T01:54:09.856Z,8.28
2022-12-31T01:55:09.851Z,8.29
2022-12-31T01:56:09.835Z,8.30
2022-12-31T01:57:09.820Z,8.29
2022-12-31T01:58:09.800Z,8.29
2022-12-31T01:59:09.771Z,8.28
2022-12-31T02:00:09.783Z,8.29
2022-12-31T02:01:09.757Z,8.31
2022-12-31T02:02:09.787Z,8.34
2022-12-31T02:03:09.801Z,8.38
2022-12-31T02:04:09.727Z,8.39
2022-12-31T02:05:09.709Z,8.39
2022-12-31T02:06:09.697Z,8.38
2022-12-31T02:07:09.676Z,8.37
2022-12-31T02:08:09.680Z,8.38
2022-12-31T02:09:09.640Z,8.39
2022-12-31T02:10:09.654Z,8.40
2022-12-31T02:11:09.620Z,8.41
2022-12-31T02:12:09.639Z,8.41
2022-12-31T02:13:15.630Z,8.41
2022-12-31T02:14:09.604Z,8.42
2022-12-31T02:15:09.586Z,8.44
2022-12-31T02:16:09.597Z,8.46
2022-12-31T02:17:09.576Z,8.48
2022-12-31T02:18:09.558Z,8.51
2022-12-31T02:19:09.511Z,8.53
2022-12-31T02:20:09.527Z,8.55
2022-12-31T02:21:09.517Z,8.56
2022-12-31T02:22:09.479Z,8.58
2022-12-31T02:23:09.490Z,8.62
2022-12-31T02:24:09.467Z,8.65
2022-12-31T02:25:09.439Z,8.66
2022-12-31T02:26:09.427Z,8.67
2022-12-31T02:27:09.436Z,8.68
2022-12-31T02:28:09.420Z,8.69
2022-12-31T02:29:09.407Z,8.70
2022-12-31T02:30:09.421Z,8.69
2022-12-31T02:31:09.377Z,8.69
2022-12-31T02:32:10.340Z,8.68
2022-12-31T02:33:09.358Z,8.68
2022-12-31T02:34:09.332Z,8.70
2022-12-31T02:35:09.324Z,8.72
2022-12-31T02:36:09.337Z,8.73
2022-12-31T02:37:09.283Z,8.74
2022-12-31T02:38:09.263Z,8.75
2022-12-31T02:39:09.277Z,8.76
2022-12-31T02:40:09.248Z,8.77
2022-12-31T02:41:09.229Z,8.79
2022-12-31T02:42:09.230Z,8.80
2022-12-31T02:43:09.227Z,8.80
2022-12-31T02:44:09.292Z,8.81
2022-12-31T02:45:09.186Z,8.83
2022-12-31T02:46:09.185Z,8.84
2022-12-31T02:47:09.172Z,8.86
2022-12-31T02:48:09.137Z,8.88
2022-12-31T02:49:09.166Z,8.88
2022-12-31T02:50:09.170Z,8.86
2022-12-31T02:51:09.080Z,8.85
2022-12-31T02:52:09.083Z,8.84
2022-12-31T02:53:09.060Z,8.85
2022-12-31T02:54:09.051Z,8.87
2022-12-31T02:55:09.063Z,8.89
2022-12-31T02:56:09.043Z,8.90
2022-12-31T02:57:09.029Z,8.91
2022-12-31T02:58:09.079Z,8.92
2022-12-31T02:59:09.000Z,8.93
2022-12-31T03:00:09.007Z,8.94
2022-12-31T03:01:09.098Z,8.94
2022-12-31T03:02:09.044Z,8.94
2022-12-31T03:03:08.972Z,8.95
2022-12-31T03:04:08.921Z,8.95
2022-12-31T03:05:08.954Z,8.96
2022-12-31T03:06:08.923Z,8.98
2022-12-31T03:07:08.892Z,9.02
2022-12-31T03:08:08.881Z,9.05
2022-12-31T03:09:08.882Z,9.09
2022-12-31T03:10:08.842Z,9.12
2022-12-31T03:11:08.847Z,9.16
2022-12-31T03:12:08.821Z,9.20
2022-12-31T03:13:08.853Z,9.24
2022-12-31T03:14:08.789Z,9.31
2022-12-31T03:15:08.769Z,9.38
2022-12-31T03:16:08.817Z,9.42
2022-12-31T03:17:08.778Z,9.46
2022-12-31T03:18:08.750Z,9.51
2022-12-31T03:19:09.170Z,9.56
2022-12-31T03:20:08.711Z,9.60
2022-12-31T03:21:08.698Z,9.65
2022-12-31T03:22:08.693Z,9.68
2022-12-31T03:23:08.719Z,9.70
2022-12-31T03:24:08.680Z,9.72
2022-12-31T03:25:08.664Z,9.74
2022-12-31T03:26:08.622Z,9.76
2022-12-31T03:27:08.620Z,9.79
2022-12-31T03:28:08.643Z,9.83
2022-12-31T03:29:08.591Z,9.88
2022-12-31T03:30:08.577Z,9.91
2022-12-31T03:31:08.608Z,9.92
2022-12-31T03:32:08.534Z,9.93
2022-12-31T03:33:08.564Z,9.93
2022-12-31T03:34:08.610Z,9.94
2022-12-31T03:35:08.528Z,9.93
2022-12-31T03:36:08.500Z,9.91
2022-12-31T03:37:08.504Z,9.89
2022-12-31T03:38:08.467Z,9.89
2022-12-31T03:39:08.474Z,9.91
2022-12-31T03:40:08.456Z,9.93
2022-12-31T03:41:08.414Z,9.97
2022-12-31T03:42:08.411Z,10.00
2022-12-31T03:43:08.412Z,10.02
2022-12-31T03:44:08.425Z,10.06
2022-12-31T03:45:08.433Z,10.11
2022-12-31T03:46:08.488Z,10.14
2022-12-31T03:47:08.372Z,10.17
2022-12-31T03:48:08.334Z,10.20
2022-12-31T03:49:08.338Z,10.22
2022-12-31T03:50:08.316Z,10.23
2022-12-31T03:51:08.308Z,10.24
2022-12-31T03:52:08.276Z,10.24
2022-12-31T03:53:08.306Z,10.23
2022-12-31T03:54:08.266Z,10.21
2022-12-31T03:55:08.256Z,10.20
2022-12-31T03:56:08.235Z,10.20
2022-12-31T03:57:08.261Z,10.20
2022-12-31T03:58:08.206Z,10.20
2022-12-31T03:59:08.210Z,10.21
2022-12-31T04:00:08.226Z,10.21
2022-12-31T04:01:08.256Z,10.22
2022-12-31T04:02:08.306Z,10.24
2022-12-31T04:03:08.174Z,10.26
2022-12-31T04:04:08.136Z,10.25
2022-12-31T04:05:08.136Z,10.25
2022-12-31T04:06:08.112Z,10.25
2022-12-31T04:07:08.098Z,10.25
2022-12-31T04:08:08.099Z,10.24
2022-12-31T04:09:08.041Z,10.24
2022-12-31T04:10:08.044Z,10.25
2022-12-31T04:11:08.043Z,10.26
2022-12-31T04:12:08.005Z,10.26
2022-12-31T04:13:07.989Z,10.25
2022-12-31T04:14:07.997Z,10.23
2022-12-31T04:15:08.000Z,10.22
2022-12-31T04:16:07.990Z,10.21
2022-12-31T04:17:07.964Z,10.20
2022-12-31T04:18:07.963Z,10.21
2022-12-31T04:19:07.926Z,10.24
2022-12-31T04:20:07.935Z,10.28
2022-12-31T04:21:07.889Z,10.30
2022-12-31T04:22:07.919Z,10.32
2022-12-31T04:23:07.863Z,10.35
2022-12-31T04:24:07.908Z,10.35
2022-12-31T04:25:07.851Z,10.35
2022-12-31T04:26:07.887Z,10.37
2022-12-31T04:27:08.260Z,10.39
2022-12-31T04:28:07.813Z,10.40
2022-12-31T04:29:07.825Z,10.44
2022-12-31T04:30:07.784Z,10.49
2022-12-31T04:31:07.773Z,10.52
2022-12-31T04:32:07.837Z,10.54
2022-12-31T04:33:07.744Z,10.55
2022-12-31T04:34:07.742Z,10.54
2022-12-31T04:35:07.753Z,10.55
2022-12-31T04:36:07.696Z,10.56
2022-12-31T04:37:07.691Z,10.57
2022-12-31T04:38:07.667Z,10.60
2022-12-31T04:39:07.676Z,10.63
2022-12-31T04:40:07.654Z,10.65
2022-12-31T04:41:07.640Z,10.66
2022-12-31T04:42:07.632Z,10.67
2022-12-31T04:43:07.609Z,10.70
2022-12-31T04:44:07.638Z,10.73
2022-12-31T04:45:07.599Z,10.77
2022-12-31T04:46:07.555Z,10.81
2022-12-31T04:47:07.544Z,10.85
2022-12-31T04:48:07.527Z,10.88
2022-12-31T04:49:07.518Z,10.92
2022-12-31T04:50:07.514Z,10.91
2022-12-31T04:51:07.496Z,10.89
2022-12-31T04:52:07.482Z,10.87
2022-12-31T04:53:07.546Z,10.85
2022-12-31T04:54:07.428Z,10.82
2022-12-31T04:55:07.449Z,10.79
2022-12-31T04:56:07.412Z,10.77
2022-12-31T04:57:07.497Z,10.76
2022-12-31T04:58:07.377Z,10.78
2022-12-31T04:59:07.431Z,10.81
2022-12-31T05:00:07.432Z,10.85
2022-12-31T05:01:07.498Z,10.87
2022-12-31T05:02:07.534Z,10.89
2022-12-31T05:03:07.405Z,10.90
2022-12-31T05:04:07.295Z,10.92
2022-12-31T05:05:07.319Z,10.95
2022-12-31T05:06:07.335Z,10.99
2022-12-31T05:07:07.320Z,11.01
2022-12-31T05:08:07.266Z,11.03
2022-12-31T05:09:07.244Z,11.05
2022-12-31T05:10:07.232Z,11.05
2022-12-31T05:11:07.210Z,11.05
2022-12-31T05:12:07.186Z,11.05
2022-12-31T05:13:07.205Z,11.06
2022-12-31T05:14:07.207Z,11.10
2022-12-31T05:15:07.186Z,11.15
2022-12-31T05:16:07.193Z,11.18
2022-12-31T05:17:07.145Z,11.19
2022-12-31T05:18:07.120Z,11.19
2022-12-31T05:19:07.134Z,11.19
2022-12-31T05:20:07.156Z,11.20
2022-12-31T05:21:07.094Z,11.20
2022-12-31T05:22:07.097Z,11.20
2022-12-31T05:23:07.086Z,11.21
2022-12-31T05:24:07.041Z,11.22
2022-12-31T05:25:07.087Z,11.25
2022-12-31T05:26:07.042Z,11.31
2022-12-31T05:27:07.005Z,11.38
2022-12-31T05:28:06.993Z,11.44
2022-12-31T05:29:06.964Z,11.48
2022-12-31T05:30:06.966Z,11.52
2022-12-31T05:31:06.982Z,11.56
2022-12-31T05:32:06.962Z,11.56
2022-12-31T05:33:06.941Z,11.51
2022-12-31T05:34:06.899Z,11.44
2022-12-31T05:35:06.954Z,11.36
2022-12-31T05:36:06.882Z,11.28
2022-12-31T05:37:06.867Z,11.19
2022-12-31T05:38:06.843Z,11.12
2022-12-31T05:39:06.847Z,11.07
2022-12-31T05:40:06.817Z,11.02
2022-12-31T05:41:06.821Z,10.97
2022-12-31T05:42:06.782Z,10.94
2022-12-31T05:43:06.821Z,10.92
2022-12-31T05:44:06.777Z,10.88
2022-12-31T05:45:06.786Z,10.85
2022-12-31T05:46:06.808Z,10.83
2022-12-31T05:47:06.746Z,10.81
2022-12-31T05:48:06.743Z,10.80
2022-12-31T05:49:06.723Z,10.78
2022-12-31T05:50:06.673Z,10.76
2022-12-31T05:51:06.664Z,10.75
2022-12-31T05:52:06.674Z,10.76
2022-12-31T05:53:06.692Z,10.77
2022-12-31T05:54:06.619Z,10.77
2022-12-31T05:55:06.638Z,10.77
2022-12-31T05:56:06.604Z,10.76
2022-12-31T05:57:06.632Z,10.76
2022-12-31T05:58:06.615Z,10.75
2022-12-31T05:59:06.596Z,10.75
2022-12-31T06:00:06.559Z,10.77
2022-12-31T06:01:06.575Z,10.82
2022-12-31T06:02:06.519Z,10.87
2022-12-31T06:03:06.628Z,10.89
2022-12-31T06:04:06.527Z,10.90
2022-12-31T06:05:06.478Z,10.90
2022-12-31T06:06:06.507Z,10.91
2022-12-31T06:07:06.453Z,10.92
2022-12-31T06:08:06.428Z,10.91
2022-12-31T06:09:06.446Z,10.91
2022-12-31T06:10:06.425Z,10.92
2022-12-31T06:11:06.433Z,10.93
2022-12-31T06:12:06.400Z,10.92
2022-12-31T06:13:06.392Z,10.90
2022-12-31T06:14:06.361Z,10.88
2022-12-31T06:15:06.351Z,10.88
2022-12-31T06:16:06.366Z,10.88
2022-12-31T06:17:06.333Z,10.88
2022-12-31T06:18:06.317Z,10.87
2022-12-31T06:19:06.296Z,10.88
2022-12-31T06:20:12.457Z,10.89
2022-12-31T06:21:06.308Z,10.94
2022-12-31T06:22:06.241Z,11.00
2022-12-31T06:23:06.242Z,11.02
2022-12-31T06:24:06.233Z,11.04
2022-12-31T06:25:06.222Z,11.07
2022-12-31T06:26:06.188Z,11.10
2022-12-31T06:27:06.208Z,11.11
2022-12-31T06:28:06.183Z,11.13
2022-12-31T06:29:06.180Z,11.14
2022-12-31T06:30:06.168Z,11.15
2022-12-31T06:31:06.188Z,11.15
2022-12-31T06:32:06.127Z,11.15
2022-12-31T06:33:06.127Z,11.17
2022-12-31T06:34:06.151Z,11.25
2022-12-31T06:35:06.072Z,11.34
2022-12-31T06:36:06.080Z,11.45
2022-12-31T06:37:06.059Z,11.55
2022-12-31T06:38:06.055Z,11.60
2022-12-31T06:39:06.030Z,11.61
2022-12-31T06:40:06.018Z,11.62
2022-12-31T06:41:06.004Z,11.64
2022-12-31T06:42:06.001Z,11.64
2022-12-31T06:43:05.993Z,11.64
2022-12-31T06:44:05.955Z,11.64
2022-12-31T06:45:05.960Z,11.64
2022-12-31T06:46:05.971Z,11.66
2022-12-31T06:47:05.925Z,11.71
2022-12-31T06:48:05.908Z,11.75
2022-12-31T06:49:05.890Z,11.80
2022-12-31T06:50:05.878Z,11.88
2022-12-31T06:51:05.873Z,11.93
2022-12-31T06:52:05.859Z,11.96
2022-12-31T06:53:05.858Z,12.01
2022-12-31T06:54:05.809Z,12.05
2022-12-31T06:55:05.860Z,12.08
2022-12-31T06:56:05.824Z,12.08
2022-12-31T06:57:05.795Z,12.09
2022-12-31T06:58:05.782Z,12.13
2022-12-31T06:59:05.757Z,12.19
2022-12-31T07:00:05.819Z,12.27
2022-12-31T07:01:05.746Z,12.37
2022-12-31T07:02:05.779Z,12.45
2022-12-31T07:03:05.713Z,12.51
2022-12-31T07:04:05.677Z,12.55
2022-12-31T07:05:05.679Z,12.57
2022-12-31T07:06:05.692Z,12.55
2022-12-31T07:07:05.639Z,12.52
2022-12-31T07:08:05.639Z,12.50
2022-12-31T07:09:05.629Z,12.51
2022-12-31T07:10:05.620Z,12.55
2022-12-31T07:11:05.603Z,12.60
2022-12-31T07:12:05.595Z,12.63
2022-12-31T07:13:05.584Z,12.64
2022-12-31T07:14:05.559Z,12.62
2022-12-31T07:15:05.591Z,12.59
2022-12-31T07:16:05.578Z,12.58
2022-12-31T07:17:05.531Z,12.63
2022-12-31T07:18:05.513Z,12.73
2022-12-31T07:19:05.507Z,12.80
2022-12-31T07:20:05.483Z,12.82
2022-12-31T07:21:05.549Z,12.84
2022-12-31T07:22:05.464Z,12.86
2022-12-31T07:23:05.427Z,12.89
2022-12-31T07:24:05.446Z,12.92
2022-12-31T07:25:05.433Z,12.95
2022-12-31T07:26:05.409Z,12.99
2022-12-31T07:27:05.400Z,13.03
2022-12-31T07:28:05.373Z,13.04
2022-12-31T07:29:05.346Z,13.04
2022-12-31T07:30:05.343Z,13.02
2022-12-31T07:31:05.431Z,13.03
2022-12-31T07:32:05.362Z,13.05
2022-12-31T07:33:05.302Z,13.04
2022-12-31T07:34:05.298Z,13.06
2022-12-31T07:35:05.298Z,13.09
2022-12-31T07:36:05.292Z,13.12
2022-12-31T07:37:05.263Z,13.16
2022-12-31T07:38:05.259Z,13.21
2022-12-31T07:39:05.227Z,13.22
2022-12-31T07:40:05.231Z,13.21
2022-12-31T07:41:09.358Z,13.20
2022-12-31T07:42:05.212Z,13.21
2022-12-31T07:43:05.165Z,13.25
2022-12-31T07:44:05.199Z,13.30
2022-12-31T07:45:05.161Z,13.33
2022-12-31T07:46:05.247Z,13.33
2022-12-31T07:47:05.138Z,13.33
2022-12-31T07:48:05.135Z,13.33
2022-12-31T07:49:05.117Z,13.33
2022-12-31T07:50:05.236Z,13.38
2022-12-31T07:51:05.101Z,13.42
2022-12-31T07:52:05.080Z,13.45
2022-12-31T07:53:05.072Z,13.46
2022-12-31T07:54:10.196Z,13.46
2022-12-31T07:55:05.017Z,13.47
2022-12-31T07:56:05.016Z,13.47
2022-12-31T07:57:04.995Z,13.45
2022-12-31T07:58:04.969Z,13.44
2022-12-31T07:59:04.971Z,13.47
2022-12-31T08:00:04.960Z,13.50
2022-12-31T08:01:05.029Z,13.54
2022-12-31T08:02:04.981Z,13.58
2022-12-31T08:03:04.916Z,13.62
2022-12-31T08:04:04.907Z,13.65
2022-12-31T08:05:04.945Z,13.67
2022-12-31T08:06:04.886Z,13.68
2022-12-31T08:07:04.845Z,13.68
2022-12-31T08:08:04.858Z,13.66
2022-12-31T08:09:04.834Z,13.65
2022-12-31T08:10:04.822Z,13.66
2022-12-31T08:11:04.789Z,13.68
2022-12-31T08:12:04.804Z,13.70
2022-12-31T08:13:04.799Z,13.71
2022-12-31T08:14:10.790Z,13.70
2022-12-31T08:15:04.750Z,13.72
2022-12-31T08:16:04.740Z,13.76
2022-12-31T08:17:04.724Z,13.79
2022-12-31T08:18:04.723Z,13.79
2022-12-31T08:19:04.707Z,13.78
2022-12-31T08:20:04.690Z,13.76
2022-12-31T08:21:04.674Z,13.74
2022-12-31T08:22:04.692Z,13.74
2022-12-31T08:23:04.655Z,13.75
2022-12-31T08:24:04.632Z,13.76
2022-12-31T08:25:04.635Z,13.76
2022-12-31T08:26:04.600Z,13.76
2022-12-31T08:27:04.577Z,13.76
2022-12-31T08:28:04.587Z,13.78
2022-12-31T08:29:04.592Z,13.78
2022-12-31T08:30:04.571Z,13.78
2022-12-31T08:31:04.544Z,13.76
2022-12-31T08:32:04.577Z,13.75
2022-12-31T08:33:04.511Z,13.77
2022-12-31T08:34:06.209Z,13.78
2022-12-31T08:35:04.504Z,13.80
2022-12-31T08:36:04.477Z,13.81
2022-12-31T08:37:04.516Z,13.81
2022-12-31T08:38:04.462Z,13.81
2022-12-31T08:39:04.459Z,13.82
2022-12-31T08:40:04.423Z,13.86
2022-12-31T08:41:04.408Z,13.89
2022-12-31T08:42:04.411Z,13.89
2022-12-31T08:43:04.395Z,13.90
2022-12-31T08:44:04.400Z,13.90
2022-12-31T08:45:04.354Z,13.89
2022-12-31T08:46:04.459Z,13.87
2022-12-31T08:47:04.380Z,13.87
2022-12-31T08:48:04.380Z,13.88
2022-12-31T08:49:04.306Z,13.89
2022-12-31T08:50:04.314Z,13.90
2022-12-31T08:51:04.284Z,13.92
2022-12-31T08:52:04.234Z,13.94
2022-12-31T08:53:04.244Z,13.97
2022-12-31T08:54:04.223Z,14.01
2022-12-31T08:55:04.202Z,14.06
2022-12-31T08:56:04.179Z,14.10
2022-12-31T08:57:04.168Z,14.11
2022-12-31T08:58:04.150Z,14.13
2022-12-31T08:59:04.151Z,14.17
2022-12-31T09:00:04.154Z,14.23
2022-12-31T09:01:04.168Z,14.28
2022-12-31T09:02:04.298Z,14.34
2022-12-31T09:03:04.092Z,14.40
2022-12-31T09:04:04.129Z,14.46
2022-12-31T09:05:04.052Z,14.53
2022-12-31T09:06:04.067Z,14.61
2022-12-31T09:07:04.037Z,14.71
2022-12-31T09:08:04.048Z,14.83
2022-12-31T09:09:03.998Z,14.92
2022-12-31T09:10:04.002Z,14.95
2022-12-31T09:11:03.970Z,14.97
2022-12-31T09:12:03.978Z,14.94
2022-12-31T09:13:03.962Z,14.85
2022-12-31T09:14:03.948Z,14.73
2022-12-31T09:15:03.924Z,14.64
2022-12-31T09:16:04.057Z,14.59
2022-12-31T09:17:03.887Z,14.56
2022-12-31T09:18:03.910Z,14.55
2022-12-31T09:19:03.903Z,14.54
2022-12-31T09:20:03.870Z,14.54
2022-12-31T09:21:03.849Z,14.53
2022-12-31T09:22:03.871Z,14.54
2022-12-31T09:23:03.859Z,14.57
2022-12-31T09:24:09.167Z,14.59
2022-12-31T09:25:03.820Z,14.61
2022-12-31T09:26:03.841Z,14.62
2022-12-31T09:27:03.784Z,14.69
2022-12-31T09:28:03.826Z,14.82
2022-12-31T09:29:03.762Z,14.92
2022-12-31T09:30:03.792Z,15.05
2022-12-31T09:31:03.732Z,15.10
2022-12-31T09:32:03.791Z,15.14
2022-12-31T09:33:03.698Z,15.25
2022-12-31T09:34:03.697Z,15.40
2022-12-31T09:35:03.691Z,15.62
2022-12-31T09:36:03.721Z,15.81
2022-12-31T09:37:03.649Z,15.86
2022-12-31T09:38:09.489Z,15.86
2022-12-31T09:39:03.629Z,15.89
2022-12-31T09:40:03.587Z,15.97
2022-12-31T09:41:03.625Z,16.09
2022-12-31T09:42:03.576Z,16.18
2022-12-31T09:43:03.612Z,16.27
2022-12-31T09:44:03.551Z,16.33
2022-12-31T09:45:03.590Z,16.38
2022-12-31T09:46:03.555Z,16.44
2022-12-31T09:47:03.500Z,16.50
2022-12-31T09:48:03.503Z,16.58
2022-12-31T09:49:03.493Z,16.51
2022-12-31T09:50:03.474Z,16.27
2022-12-31T09:51:03.442Z,16.02
2022-12-31T09:52:03.448Z,15.88
2022-12-31T09:53:03.429Z,15.77
2022-12-31T09:54:03.406Z,15.68
2022-12-31T09:55:03.410Z,15.78
2022-12-31T09:56:03.423Z,16.00
2022-12-31T09:57:03.376Z,16.22
2022-12-31T09:58:03.344Z,16.38
2022-12-31T09:59:03.333Z,16.48
2022-12-31T10:00:03.346Z,16.59
2022-12-31T10:01:03.615Z,16.65
2022-12-31T10:02:03.647Z,16.59
2022-12-31T10:03:03.377Z,16.52
2022-12-31T10:04:03.962Z,16.58
2022-12-31T10:05:03.269Z,16.74
2022-12-31T10:06:03.248Z,16.80
2022-12-31T10:07:03.228Z,16.79
2022-12-31T10:08:03.210Z,16.82
2022-12-31T10:09:03.210Z,16.74
2022-12-31T10:10:03.200Z,16.56
2022-12-31T10:11:03.182Z,16.36
2022-12-31T10:12:03.203Z,16.19
2022-12-31T10:13:03.191Z,16.04
2022-12-31T10:14:03.176Z,15.92
2022-12-31T10:15:03.131Z,15.85
2022-12-31T10:16:03.148Z,15.81
2022-12-31T10:17:03.134Z,15.79
2022-12-31T10:18:03.088Z,15.78
2022-12-31T10:19:03.062Z,15.82
2022-12-31T10:20:03.073Z,15.91
2022-12-31T10:21:03.038Z,16.04
2022-12-31T10:22:03.043Z,16.14
2022-12-31T10:23:03.006Z,16.24
2022-12-31T10:24:03.009Z,16.39
2022-12-31T10:25:03.018Z,16.50
2022-12-31T10:26:02.984Z,16.53
2022-12-31T10:27:02.967Z,16.55
2022-12-31T10:28:02.940Z,16.55
2022-12-31T10:29:02.943Z,16.56
2022-12-31T10:30:02.957Z,16.57
2022-12-31T10:31:03.046Z,16.56
2022-12-31T10:32:02.909Z,16.54
2022-12-31T10:33:02.884Z,16.49
2022-12-31T10:34:02.888Z,16.45
2022-12-31T10:35:03.154Z,16.42
2022-12-31T10:36:02.837Z,16.40
2022-12-31T10:37:02.818Z,16.44
2022-12-31T10:38:02.825Z,16.57
2022-12-31T10:39:06.141Z,16.70
2022-12-31T10:40:02.793Z,16.73
2022-12-31T10:41:02.766Z,16.71
2022-12-31T10:42:02.772Z,16.68
2022-12-31T10:43:02.740Z,16.67
2022-12-31T10:44:02.731Z,16.69
2022-12-31T10:45:02.732Z,16.64
2022-12-31T10:46:02.728Z,16.57
2022-12-31T10:47:02.694Z,16.59
2022-12-31T10:48:02.696Z,16.61
2022-12-31T10:49:02.690Z,16.57
2022-12-31T10:50:02.656Z,16.52
2022-12-31T10:51:02.646Z,16.47
2022-12-31T10:52:02.643Z,16.41
2022-12-31T10:53:02.603Z,16.35
2022-12-31T10:54:02.665Z,16.30
2022-12-31T10:55:02.632Z,16.26
2022-12-31T10:56:02.592Z,16.23
2022-12-31T10:57:02.552Z,16.21
2022-12-31T10:58:04.493Z,16.21
2022-12-31T10:59:02.530Z,16.21
2022-12-31T11:00:02.532Z,16.21
2022-12-31T11:01:02.686Z,16.21
2022-12-31T11:02:02.534Z,16.21
2022-12-31T11:03:02.504Z,16.20
2022-12-31T11:04:02.464Z,16.19
2022-12-31T11:05:02.477Z,16.17
2022-12-31T11:06:02.441Z,16.16
2022-12-31T11:07:02.428Z,16.15
2022-12-31T11:08:02.541Z,16.16
2022-12-31T11:09:02.409Z,16.17
2022-12-31T11:10:02.379Z,16.19
2022-12-31T11:11:02.417Z,16.21
2022-12-31T11:12:02.348Z,16.23
2022-12-31T11:13:02.331Z,16.25
2022-12-31T11:14:02.324Z,16.28
2022-12-31T11:15:02.323Z,16.30
2022-12-31T11:16:02.352Z,16.31
2022-12-31T11:17:02.405Z,16.32
2022-12-31T11:18:02.305Z,16.33
2022-12-31T11:19:02.269Z,16.33
2022-12-31T11:20:02.248Z,16.34
2022-12-31T11:21:02.224Z,16.35
2022-12-31T11:22:02.238Z,16.34
2022-12-31T11:23:02.239Z,16.33
2022-12-31T11:24:02.212Z,16.33
2022-12-31T11:25:02.229Z,16.34
2022-12-31T11:26:02.174Z,16.34
2022-12-31T11:27:02.145Z,16.33
2022-12-31T11:28:02.161Z,16.31
2022-12-31T11:29:02.127Z,16.30
2022-12-31T11:30:02.123Z,16.28
2022-12-31T11:31:02.150Z,16.26
2022-12-31T11:32:02.094Z,16.24
2022-12-31T11:33:02.093Z,16.23
2022-12-31T11:34:02.057Z,16.22
2022-12-31T11:35:02.040Z,16.23
2022-12-31T11:36:02.026Z,16.26
2022-12-31T11:37:02.065Z,16.27
2022-12-31T11:38:02.008Z,16.27
2022-12-31T11:39:02.000Z,16.28
2022-12-31T11:40:01.971Z,16.32
2022-12-31T11:41:01.979Z,16.35
2022-12-31T11:42:01.940Z,16.36
2022-12-31T11:43:01.958Z,16.39
2022-12-31T11:44:01.940Z,16.43
2022-12-31T11:45:01.921Z,16.53
2022-12-31T11:46:01.943Z,16.70
2022-12-31T11:47:01.898Z,16.86
2022-12-31T11:48:29.653Z,16.97
2022-12-31T11:49:01.890Z,17.00
2022-12-31T11:50:01.860Z,16.96
2022-12-31T11:51:01.863Z,16.91
2022-12-31T11:52:01.834Z,16.87
2022-12-31T11:53:01.811Z,16.83
2022-12-31T11:54:01.793Z,16.81
2022-12-31T11:55:01.772Z,16.79
2022-12-31T11:56:01.800Z,16.78
2022-12-31T11:57:01.749Z,16.80
2022-12-31T11:58:01.821Z,16.82
2022-12-31T11:59:06.259Z,16.84
2022-12-31T12:00:01.723Z,16.88
2022-12-31T12:01:01.718Z,16.94
2022-12-31T12:02:01.674Z,17.03
2022-12-31T12:03:01.760Z,17.13
2022-12-31T12:04:01.741Z,17.24
2022-12-31T12:05:08.472Z,17.29
2022-12-31T12:06:02.080Z,17.28
2022-12-31T12:07:01.687Z,17.27
2022-12-31T12:08:01.768Z,17.27
2022-12-31T12:09:01.660Z,17.27
2022-12-31T12:10:01.619Z,17.26
2022-12-31T12:11:01.582Z,17.24
2022-12-31T12:12:01.963Z,17.20
2022-12-31T12:13:01.838Z,17.18
2022-12-31T12:14:01.539Z,17.17
2022-12-31T12:15:01.545Z,17.15
2022-12-31T12:16:02.628Z,17.14
2022-12-31T12:17:05.839Z,17.13
2022-12-31T12:18:01.943Z,17.13
2022-12-31T12:19:03.902Z,17.13
2022-12-31T12:20:02.276Z,17.14
2022-12-31T12:21:02.164Z,17.15
2022-12-31T12:22:01.463Z,17.16
2022-12-31T12:23:01.438Z,17.17
2022-12-31T12:24:01.403Z,17.19
2022-12-31T12:25:01.366Z,17.19
2022-12-31T12:26:01.798Z,17.18
2022-12-31T12:27:01.373Z,17.15
2022-12-31T12:28:01.349Z,17.13
2022-12-31T12:29:01.520Z,17.10
2022-12-31T12:30:02.174Z,17.08
2022-12-31T12:31:01.421Z,17.04
2022-12-31T12:32:01.286Z,17.02
2022-12-31T12:33:01.272Z,16.99
2022-12-31T12:34:01.415Z,16.96
2022-12-31T12:35:02.132Z,16.94
2022-12-31T12:36:01.339Z,16.93
2022-12-31T12:37:01.219Z,16.91
2022-12-31T12:38:01.205Z,16.89
2022-12-31T12:39:01.221Z,16.89
2022-12-31T12:40:01.192Z,16.90
2022-12-31T12:41:01.165Z,16.92
2022-12-31T12:42:01.148Z,16.93
2022-12-31T12:43:01.254Z,16.93
2022-12-31T12:44:01.142Z,16.92
2022-12-31T12:45:01.237Z,16.93
2022-12-31T12:46:01.095Z,16.95
2022-12-31T12:47:01.116Z,16.96
2022-12-31T12:48:01.203Z,16.98
2022-12-31T12:49:01.317Z,16.99
2022-12-31T12:50:01.119Z,16.99
2022-12-31T12:51:01.284Z,16.98
2022-12-31T12:52:01.084Z,16.98
2022-12-31T12:53:01.105Z,16.95
2022-12-31T12:54:01.028Z,16.92
2022-12-31T12:55:00.961Z,16.90
2022-12-31T12:56:00.964Z,16.90
2022-12-31T12:57:00.991Z,16.91
2022-12-31T12:58:00.919Z,16.91
2022-12-31T12:59:00.940Z,16.92
2022-12-31T13:00:00.909Z,16.92